Time;durP1;ratioP1;P1;durP2;ratioP2;P2;SDS_P1;SDS_P2;PMS_P1;PMS_P2;Temp;Humidity;BMP_temperature;BMP_pressure;BME280_temperature;BME280_humidity;BME280_pressure;Samples;Min_cycle;Max_cycle;Signal;HPM_P1;HPM_P2
2022/07/15 00:01:55;;;;;;;8.93;3.17;;;18.70;99.90;;;;;;4970082;28;20050;-54
2022/07/15 00:04:23;;;;;;;10.13;2.67;;;18.60;99.90;;;;;;4969510;28;20054;-55
2022/07/15 00:06:50;;;;;;;7.10;2.53;;;18.50;99.90;;;;;;4968232;28;20047;-54
2022/07/15 00:09:16;;;;;;;4.35;2.28;;;18.50;99.90;;;;;;4968387;28;20051;-53
2022/07/15 00:11:43;;;;;;;7.00;2.25;;;18.50;99.90;;;;;;4967280;28;20470;-54
2022/07/15 00:14:10;;;;;;;6.20;2.35;;;18.60;99.90;;;;;;4968385;28;20134;-55
2022/07/15 00:16:37;;;;;;;13.55;2.97;;;18.50;99.90;;;;;;4967958;28;20101;-57
2022/07/15 00:19:04;;;;;;;6.95;2.10;;;18.40;99.90;;;;;;4968387;28;20069;-53
2022/07/15 00:21:31;;;;;;;8.82;2.80;;;18.30;99.90;;;;;;4969269;28;20050;-53
2022/07/15 00:23:59;;;;;;;10.13;4.05;;;18.20;99.90;;;;;;4969409;28;20050;-54
2022/07/15 00:26:25;;;;;;;10.80;4.15;;;18.20;99.90;;;;;;4969310;28;20145;-52
2022/07/15 00:28:53;;;;;;;13.05;3.83;;;18.10;99.90;;;;;;4969650;28;20082;-50
2022/07/15 00:31:20;;;;;;;13.88;4.35;;;18.10;99.90;;;;;;4969461;28;20047;-54
2022/07/15 00:33:47;;;;;;;9.82;4.50;;;18.10;99.90;;;;;;4968926;28;20050;-55
2022/07/15 00:36:14;;;;;;;14.85;3.47;;;18.10;99.90;;;;;;4968371;28;20054;-52
2022/07/15 00:38:41;;;;;;;11.13;3.92;;;18.10;99.90;;;;;;4968931;28;20521;-54
2022/07/15 00:41:08;;;;;;;8.15;3.63;;;18.10;99.90;;;;;;4969230;28;20552;-53
2022/07/15 00:43:35;;;;;;;14.82;4.75;;;18.10;99.90;;;;;;4969279;28;20127;-54
2022/07/15 00:46:02;;;;;;;9.77;3.75;;;18.10;99.90;;;;;;4969368;28;20466;-53
2022/07/15 00:48:30;;;;;;;13.57;4.70;;;18.10;99.90;;;;;;4968823;28;20506;-55
2022/07/15 00:50:57;;;;;;;16.75;4.53;;;18.00;99.90;;;;;;4968211;28;20051;-52
2022/07/15 00:53:24;;;;;;;9.43;3.20;;;18.10;99.90;;;;;;4967964;28;20094;-54
2022/07/15 00:55:51;;;;;;;12.65;3.78;;;18.10;99.90;;;;;;4967912;28;20050;-51
2022/07/15 00:58:21;;;;;;;7.78;2.58;;;18.00;99.90;;;;;;4967644;28;20174;-55
2022/07/15 01:00:48;;;;;;;6.47;2.55;;;18.00;99.90;;;;;;4968802;28;20465;-55
2022/07/15 01:03:16;;;;;;;6.18;2.60;;;18.00;99.90;;;;;;4968444;28;20175;-56
2022/07/15 01:05:44;;;;;;;5.55;2.45;;;17.90;99.90;;;;;;4967621;28;20081;-54
2022/07/15 01:08:12;;;;;;;7.10;2.67;;;17.90;99.90;;;;;;4968972;28;20074;-54
2022/07/15 01:10:39;;;;;;;6.78;2.90;;;17.90;99.90;;;;;;4621335;28;10000411;-55
2022/07/15 01:13:06;;;;;;;6.00;2.35;;;17.80;99.90;;;;;;4965290;28;20055;-53
2022/07/15 01:15:33;;;;;;;11.00;3.10;;;17.60;99.90;;;;;;4965231;28;20074;-54
2022/07/15 01:18:01;;;;;;;8.48;2.92;;;17.50;99.90;;;;;;4966622;28;20602;-54
2022/07/15 01:20:28;;;;;;;8.57;3.03;;;17.60;99.90;;;;;;4967445;28;20498;-54
2022/07/15 01:22:55;;;;;;;9.20;3.88;;;17.60;99.90;;;;;;4968241;28;20043;-54
2022/07/15 01:25:22;;;;;;;12.43;4.78;;;17.50;99.90;;;;;;4968298;28;20461;-55
2022/07/15 01:27:49;;;;;;;11.25;4.93;;;17.50;99.90;;;;;;4968154;28;20106;-53
2022/07/15 01:30:16;;;;;;;7.93;4.65;;;17.40;99.90;;;;;;4968427;28;20101;-55
2022/07/15 01:32:43;;;;;;;11.43;4.13;;;17.40;99.90;;;;;;4968138;28;20047;-56
2022/07/15 01:35:10;;;;;;;10.13;4.40;;;17.20;99.90;;;;;;4969225;28;20046;-55
2022/07/15 01:37:36;;;;;;;10.30;5.10;;;17.00;99.90;;;;;;4968252;28;20117;-54
2022/07/15 01:40:05;;;;;;;14.70;4.25;;;16.90;99.90;;;;;;4968298;28;20088;-54
2022/07/15 01:42:32;;;;;;;12.70;4.60;;;16.90;99.90;;;;;;4957243;28;20046;-51
2022/07/15 01:44:59;;;;;;;17.85;4.53;;;17.00;99.90;;;;;;4968375;28;20077;-53
2022/07/15 01:47:26;;;;;;;9.35;3.25;;;17.20;99.90;;;;;;4968307;28;20047;-57
2022/07/15 01:49:53;;;;;;;8.73;4.43;;;17.20;99.90;;;;;;4967107;28;20055;-53
2022/07/15 01:52:20;;;;;;;10.93;3.58;;;17.30;99.90;;;;;;4967777;28;20050;-54
2022/07/15 01:54:47;;;;;;;13.73;4.97;;;17.20;99.90;;;;;;4968255;28;20051;-55
2022/07/15 01:57:13;;;;;;;14.52;5.00;;;17.10;99.90;;;;;;4968418;28;20047;-55
2022/07/15 01:59:41;;;;;;;12.52;5.07;;;17.00;99.90;;;;;;4968257;28;20074;-53
2022/07/15 02:02:08;;;;;;;11.90;4.70;;;17.00;99.90;;;;;;4968404;28;20117;-53
2022/07/15 02:04:36;;;;;;;12.68;5.40;;;16.80;99.90;;;;;;4966744;28;20046;-54
2022/07/15 02:07:04;;;;;;;12.55;4.38;;;16.80;99.90;;;;;;4968582;28;20102;-54
2022/07/15 02:09:31;;;;;;;13.27;5.47;;;16.80;99.90;;;;;;4968599;28;20090;-52
2022/07/15 02:11:57;;;;;;;10.50;4.75;;;16.80;99.90;;;;;;4968191;28;20062;-55
2022/07/15 02:14:24;;;;;;;9.43;4.28;;;16.90;99.90;;;;;;4969708;28;20051;-53
2022/07/15 02:16:51;;;;;;;10.65;4.03;;;16.80;99.90;;;;;;4971935;28;20445;-55
2022/07/15 02:19:18;;;;;;;9.77;4.82;;;16.90;99.90;;;;;;4972273;28;20114;-53
2022/07/15 02:21:45;;;;;;;11.07;4.55;;;16.90;99.90;;;;;;4971696;28;20502;-52
2022/07/15 02:24:12;;;;;;;7.82;4.43;;;16.90;99.90;;;;;;4971925;28;20051;-53
2022/07/15 02:26:38;;;;;;;13.80;4.55;;;16.80;99.90;;;;;;4968045;28;20066;-56
2022/07/15 02:29:05;;;;;;;14.55;4.60;;;16.70;99.90;;;;;;4972057;28;20042;-52
2022/07/15 02:31:32;;;;;;;10.82;4.28;;;16.70;99.90;;;;;;4971488;28;20050;-54
2022/07/15 02:33:59;;;;;;;13.27;5.53;;;16.70;99.90;;;;;;4971847;28;20133;-54
2022/07/15 02:36:26;;;;;;;11.68;4.65;;;16.80;99.90;;;;;;4970479;28;20106;-56
2022/07/15 02:38:52;;;;;;;8.85;3.53;;;16.80;99.90;;;;;;4971774;28;20093;-55
2022/07/15 02:41:19;;;;;;;7.80;3.50;;;16.80;99.90;;;;;;4971348;28;20046;-53
2022/07/15 02:43:46;;;;;;;8.80;3.00;;;16.70;99.90;;;;;;4971351;28;20078;-55
2022/07/15 02:46:13;;;;;;;6.07;2.28;;;16.70;99.90;;;;;;4971607;28;20055;-53
2022/07/15 02:48:40;;;;;;;5.95;2.08;;;16.70;99.90;;;;;;4971261;28;20070;-54
2022/07/15 02:51:07;;;;;;;5.88;1.92;;;16.70;99.90;;;;;;4971518;28;20576;-52
2022/07/15 02:53:34;;;;;;;5.57;1.45;;;16.70;99.90;;;;;;4970966;28;20050;-51
2022/07/15 02:56:02;;;;;;;6.60;1.92;;;16.70;99.60;;;;;;4970816;28;20178;-54
2022/07/15 02:58:30;;;;;;;4.63;1.17;;;16.70;99.30;;;;;;4970645;28;20043;-52
2022/07/15 03:00:58;;;;;;;3.60;1.10;;;16.60;99.10;;;;;;4970626;28;20047;-54
2022/07/15 03:03:27;;;;;;;3.08;1.05;;;16.60;98.90;;;;;;4971110;28;20121;-54
2022/07/15 03:05:57;;;;;;;3.40;1.00;;;16.70;98.60;;;;;;4970553;28;20394;-52
2022/07/15 03:08:24;;;;;;;2.22;0.80;;;16.70;98.20;;;;;;4971349;28;20051;-54
2022/07/15 03:10:51;;;;;;;4.30;1.30;;;16.80;97.90;;;;;;4971274;28;20058;-54
2022/07/15 03:13:18;;;;;;;9.02;1.38;;;16.80;97.60;;;;;;4970594;28;20465;-53
2022/07/15 03:15:46;;;;;;;4.00;0.80;;;16.80;97.50;;;;;;4970832;28;20447;-55
2022/07/15 03:18:12;;;;;;;3.83;1.02;;;16.70;97.40;;;;;;4970135;28;20050;-54
2022/07/15 03:20:39;;;;;;;3.67;1.00;;;16.70;97.30;;;;;;4970568;28;20485;-53
2022/07/15 03:23:13;;;;;;;2.50;0.80;;;16.70;97.40;;;;;;4969736;28;20046;-53
2022/07/15 03:25:40;;;;;;;6.38;3.08;;;16.60;97.20;;;;;;4969291;28;20170;-54
2022/07/15 03:28:07;;;;;;;2.53;1.27;;;16.60;97.10;;;;;;4970382;28;20592;-52
2022/07/15 03:30:34;;;;;;;6.80;2.17;;;16.70;97.10;;;;;;4970286;28;20054;-53
2022/07/15 03:33:02;;;;;;;2.53;1.05;;;16.60;97.10;;;;;;4969840;28;20046;-53
2022/07/15 03:35:29;;;;;;;4.70;1.48;;;16.50;97.30;;;;;;4969941;28;20498;-54
2022/07/15 03:37:55;;;;;;;9.68;2.03;;;16.50;97.50;;;;;;4970042;28;20043;-52
2022/07/15 03:40:22;;;;;;;4.72;2.13;;;16.40;97.70;;;;;;4970055;28;20143;-52
2022/07/15 03:42:49;;;;;;;4.63;2.47;;;16.30;98.10;;;;;;4960408;28;20047;-53
2022/07/15 03:45:16;;;;;;;4.32;2.53;;;16.20;98.50;;;;;;4970326;28;20047;-53
2022/07/15 03:47:43;;;;;;;10.18;3.35;;;16.10;98.70;;;;;;4970118;28;20556;-55
2022/07/15 03:50:10;;;;;;;6.78;2.88;;;16.00;99.00;;;;;;4969601;28;20046;-52
2022/07/15 03:52:39;;;;;;;5.60;2.78;;;16.00;99.20;;;;;;4969701;28;20078;-55
2022/07/15 03:55:06;;;;;;;7.35;2.28;;;16.00;99.10;;;;;;4970040;28;20097;-56
2022/07/15 03:57:33;;;;;;;6.43;2.13;;;16.00;99.10;;;;;;4969814;28;20051;-55
2022/07/15 04:00:00;;;;;;;6.00;2.08;;;15.90;99.30;;;;;;4970100;28;20054;-53
2022/07/15 04:02:27;;;;;;;3.60;1.58;;;15.80;99.50;;;;;;4967219;28;20086;-53
2022/07/15 04:04:54;;;;;;;7.90;2.00;;;15.70;99.60;;;;;;4969605;28;20146;-56
2022/07/15 04:07:20;;;;;;;3.38;1.88;;;15.60;99.90;;;;;;4959823;28;20055;-56
2022/07/15 04:09:47;;;;;;;5.53;2.28;;;15.60;99.90;;;;;;4969555;28;20399;-55
2022/07/15 04:12:14;;;;;;;8.40;2.95;;;15.50;99.90;;;;;;4969501;28;20058;-56
2022/07/15 04:14:41;;;;;;;7.95;2.90;;;15.50;99.90;;;;;;4967814;28;20050;-56
2022/07/15 04:17:08;;;;;;;6.80;2.45;;;15.40;99.90;;;;;;4969432;28;20082;-55
2022/07/15 04:19:35;;;;;;;8.35;2.25;;;15.40;99.90;;;;;;4969142;28;20062;-54
2022/07/15 04:22:02;;;;;;;9.63;2.90;;;15.50;99.90;;;;;;4969182;28;20053;-52
2022/07/15 04:24:29;;;;;;;6.40;2.70;;;15.50;99.90;;;;;;4967980;28;20043;-54
2022/07/15 04:26:55;;;;;;;3.50;2.30;;;15.50;99.90;;;;;;4968894;28;20197;-52
2022/07/15 04:29:22;;;;;;;8.00;2.72;;;15.50;99.90;;;;;;4959520;28;20082;-54
2022/07/15 04:31:49;;;;;;;5.47;2.63;;;15.50;99.90;;;;;;4968689;28;20078;-55
2022/07/15 04:34:16;;;;;;;8.15;2.50;;;15.40;99.90;;;;;;4968757;28;20130;-52
2022/07/15 04:36:43;;;;;;;3.53;1.95;;;15.40;99.90;;;;;;4968794;28;20261;-54
2022/07/15 04:39:09;;;;;;;6.90;2.80;;;15.30;99.90;;;;;;4969172;28;20047;-54
2022/07/15 04:41:36;;;;;;;6.57;2.65;;;15.40;99.90;;;;;;4968362;28;20043;-58
2022/07/15 04:44:03;;;;;;;12.23;3.50;;;15.40;99.90;;;;;;4968982;28;20105;-55
2022/07/15 04:46:30;;;;;;;6.40;2.42;;;15.30;99.90;;;;;;4968434;28;20505;-52
2022/07/15 04:51:42;;;;;;;6.43;2.67;;;15.20;99.90;;;;;;4966761;28;20462;-54
2022/07/15 04:54:09;;;;;;;6.72;2.80;;;15.20;99.90;;;;;;4968221;28;20062;-54
2022/07/15 04:56:37;;;;;;;4.47;2.10;;;15.20;99.90;;;;;;4967701;28;20043;-52
2022/07/15 04:59:04;;;;;;;4.60;2.30;;;15.20;99.90;;;;;;4958551;28;20046;-52
2022/07/15 05:01:30;;;;;;;4.93;2.22;;;15.20;99.90;;;;;;4968361;28;20055;-54
2022/07/15 05:03:58;;;;;;;4.78;2.28;;;15.20;99.90;;;;;;4969015;28;20138;-54
2022/07/15 05:06:25;;;;;;;8.40;3.42;;;15.20;99.90;;;;;;4968440;28;20057;-55
2022/07/15 05:08:54;;;;;;;4.10;1.90;;;15.20;99.90;;;;;;4968262;28;20050;-55
2022/07/15 05:11:20;;;;;;;6.30;2.10;;;15.30;99.90;;;;;;4968178;28;20058;-52
2022/07/15 05:13:47;;;;;;;7.72;1.90;;;15.40;99.90;;;;;;4967558;28;20051;-52
2022/07/15 05:16:14;;;;;;;8.05;2.20;;;15.40;99.90;;;;;;4967897;28;20051;-55
2022/07/15 05:18:41;;;;;;;7.43;1.88;;;15.50;99.90;;;;;;4967772;28;20053;-55
2022/07/15 05:21:08;;;;;;;8.77;2.83;;;15.50;99.90;;;;;;4968229;28;20487;-54
2022/07/15 05:23:35;;;;;;;4.65;2.00;;;15.50;99.90;;;;;;4968093;28;20047;-53
2022/07/15 05:26:02;;;;;;;4.78;1.85;;;15.60;99.90;;;;;;4968305;28;20097;-53
2022/07/15 05:28:29;;;;;;;8.52;2.20;;;15.70;99.90;;;;;;4968175;28;20046;-53
2022/07/15 05:30:56;;;;;;;6.15;2.28;;;15.70;99.90;;;;;;4967354;28;20074;-55
2022/07/15 05:33:23;;;;;;;5.63;1.98;;;15.90;99.90;;;;;;4968787;28;20050;-54
2022/07/15 05:35:50;;;;;;;6.40;2.15;;;16.00;99.90;;;;;;4968737;28;20063;-53
2022/07/15 05:38:20;;;;;;;6.93;2.13;;;16.00;99.90;;;;;;4968605;28;20274;-55
2022/07/15 05:40:46;;;;;;;4.47;1.88;;;16.10;99.90;;;;;;4968062;28;20105;-54
2022/07/15 05:43:13;;;;;;;4.90;2.08;;;16.20;99.90;;;;;;4968708;28;20171;-52
2022/07/15 05:45:40;;;;;;;6.40;1.75;;;16.10;99.90;;;;;;4968870;28;20039;-54
2022/07/15 05:48:08;;;;;;;23.35;4.40;;;16.20;99.90;;;;;;4968326;28;20082;-54
2022/07/15 05:50:35;;;;;;;9.57;2.22;;;16.20;99.90;;;;;;4971915;28;20042;-52
2022/07/15 05:53:02;;;;;;;9.23;1.88;;;16.20;99.90;;;;;;4972167;28;20047;-51
2022/07/15 05:55:29;;;;;;;7.43;2.10;;;16.30;99.90;;;;;;4972184;28;20051;-55
2022/07/15 05:57:56;;;;;;;19.27;2.97;;;16.40;99.90;;;;;;4972271;28;20513;-54
2022/07/15 06:00:23;;;;;;;7.38;1.88;;;16.50;99.90;;;;;;4972493;28;20070;-52
2022/07/15 06:02:49;;;;;;;14.80;2.65;;;16.60;99.90;;;;;;4971948;28;20097;-55
2022/07/15 06:05:17;;;;;;;6.68;2.08;;;16.70;99.80;;;;;;4971983;28;20054;-55
2022/07/15 06:07:45;;;;;;;8.32;1.83;;;16.70;99.70;;;;;;4972088;28;20047;-52
2022/07/15 06:10:11;;;;;;;7.10;1.83;;;16.80;99.60;;;;;;4970626;28;20113;-56
2022/07/15 06:12:38;;;;;;;6.25;2.03;;;16.80;99.40;;;;;;4971507;28;20092;-54
2022/07/15 06:15:06;;;;;;;7.85;2.03;;;16.90;99.30;;;;;;4972004;28;20108;-53
2022/07/15 06:17:33;;;;;;;7.47;1.58;;;17.00;99.10;;;;;;4971776;28;20047;-54
2022/07/15 06:20:00;;;;;;;22.92;3.80;;;17.00;98.80;;;;;;4971641;28;20086;-56
2022/07/15 06:22:36;;;;;;;9.55;1.60;;;17.10;98.70;;;;;;4970376;28;20109;-53
2022/07/15 06:25:03;;;;;;;4.43;1.67;;;17.10;98.50;;;;;;4971852;28;20042;-52
2022/07/15 06:27:30;;;;;;;6.10;1.60;;;17.20;98.30;;;;;;4971633;28;20494;-53
2022/07/15 06:29:58;;;;;;;10.85;1.85;;;17.20;98.10;;;;;;4970277;28;20443;-51
2022/07/15 06:32:25;;;;;;;6.68;1.58;;;17.20;98.10;;;;;;4971683;28;20121;-52
2022/07/15 06:34:52;;;;;;;17.60;1.80;;;17.30;98.10;;;;;;4971210;28;20443;-54
2022/07/15 06:37:18;;;;;;;10.85;1.90;;;17.40;97.70;;;;;;4971854;28;20113;-55
2022/07/15 06:39:45;;;;;;;5.35;1.30;;;17.40;97.30;;;;;;4971157;28;20511;-52
2022/07/15 06:42:12;;;;;;;4.05;1.60;;;17.30;97.20;;;;;;4971257;28;20772;-55
2022/07/15 06:44:39;;;;;;;4.15;1.38;;;17.40;96.90;;;;;;4971369;28;20101;-56
2022/07/15 06:47:06;;;;;;;4.10;1.20;;;17.30;96.70;;;;;;4971537;28;20050;-54
2022/07/15 06:49:34;;;;;;;9.27;2.25;;;17.20;96.40;;;;;;4966269;28;20043;-56
2022/07/15 06:52:01;;;;;;;6.75;1.55;;;17.20;96.60;;;;;;4961313;28;20514;-55
2022/07/15 06:54:28;;;;;;;4.60;0.90;;;17.30;96.40;;;;;;4969744;28;20519;-52
2022/07/15 06:56:59;;;;;;;8.38;1.42;;;17.30;96.10;;;;;;4970462;28;20466;-54
2022/07/15 06:59:25;;;;;;;9.85;1.67;;;17.30;96.00;;;;;;4961402;28;20047;-52
2022/07/15 07:01:52;;;;;;;3.42;1.02;;;17.30;96.00;;;;;;4967869;28;20055;-54
2022/07/15 07:04:19;;;;;;;6.15;1.73;;;17.30;95.90;;;;;;4970341;28;20047;-55
2022/07/15 07:06:46;;;;;;;7.32;1.60;;;17.40;96.00;;;;;;4969234;28;20545;-49
2022/07/15 07:09:13;;;;;;;4.60;1.27;;;17.50;96.00;;;;;;4969697;28;20082;-54
2022/07/15 07:11:40;;;;;;;4.47;1.30;;;17.60;95.80;;;;;;4970698;28;20086;-54
2022/07/15 07:14:07;;;;;;;2.67;1.08;;;17.70;95.60;;;;;;4970373;28;20059;-52
2022/07/15 07:16:34;;;;;;;10.93;2.05;;;17.80;95.60;;;;;;4970177;28;20042;-50
2022/07/15 07:19:01;;;;;;;6.45;1.75;;;17.90;95.40;;;;;;4969332;28;20491;-52
2022/07/15 07:21:28;;;;;;;6.82;1.30;;;17.90;94.90;;;;;;4966431;28;20047;-53
2022/07/15 07:23:58;;;;;;;5.00;1.58;;;17.80;95.10;;;;;;4970653;28;20051;-53
2022/07/15 07:26:25;;;;;;;3.97;1.63;;;17.90;95.10;;;;;;4970089;28;20051;-53
2022/07/15 07:28:52;;;;;;;7.05;1.60;;;18.00;94.90;;;;;;4970234;28;20109;-53
2022/07/15 07:31:25;;;;;;;8.65;1.90;;;18.00;94.80;;;;;;4969905;28;20104;-57
2022/07/15 07:33:57;;;;;;;5.75;1.60;;;18.00;94.60;;;;;;4967461;28;20086;-54
2022/07/15 07:36:25;;;;;;;5.53;1.60;;;18.00;94.30;;;;;;4970068;28;20109;-55
2022/07/15 07:38:52;;;;;;;6.15;1.88;;;18.10;94.40;;;;;;4969514;28;20046;-52
2022/07/15 07:41:19;;;;;;;6.63;1.60;;;18.00;93.90;;;;;;4969876;28;20043;-54
2022/07/15 07:43:46;;;;;;;3.90;1.23;;;18.00;94.30;;;;;;4969825;28;20050;-54
2022/07/15 07:46:13;;;;;;;8.32;1.50;;;18.00;94.10;;;;;;4969954;28;20050;-54
2022/07/15 07:48:40;;;;;;;8.18;2.40;;;18.10;93.90;;;;;;4969904;28;20050;-54
2022/07/15 07:51:07;;;;;;;4.78;1.40;;;18.10;93.90;;;;;;4969106;28;20043;-54
2022/07/15 07:53:34;;;;;;;6.03;2.55;;;18.10;93.70;;;;;;4969914;28;20115;-54
2022/07/15 07:56:01;;;;;;;3.88;1.90;;;18.10;93.70;;;;;;4969652;28;20106;-60
2022/07/15 07:58:28;;;;;;;7.72;1.80;;;18.20;93.60;;;;;;4968304;28;20046;-53
2022/07/15 08:00:55;;;;;;;10.13;2.00;;;18.30;93.80;;;;;;4969938;28;20046;-54
2022/07/15 08:03:22;;;;;;;3.28;1.10;;;18.40;93.50;;;;;;4968428;28;20144;-52
2022/07/15 08:05:49;;;;;;;7.78;1.48;;;18.30;93.30;;;;;;4968634;28;20047;-54
2022/07/15 08:08:18;;;;;;;3.08;1.92;;;18.40;93.30;;;;;;4969201;28;20082;-51
2022/07/15 08:10:47;;;;;;;5.57;1.30;;;18.40;93.30;;;;;;4961225;28;20564;-53
2022/07/15 08:13:17;;;;;;;7.40;1.73;;;18.50;92.80;;;;;;4967944;28;20061;-50
2022/07/15 08:15:44;;;;;;;3.15;1.48;;;18.50;92.80;;;;;;4969308;28;20054;-53
2022/07/15 08:18:11;;;;;;;15.88;1.88;;;18.50;92.20;;;;;;4969513;28;20055;-52
2022/07/15 08:20:38;;;;;;;4.65;1.92;;;18.50;92.60;;;;;;4968926;28;20378;-54
2022/07/15 08:23:06;;;;;;;4.93;1.40;;;18.50;92.40;;;;;;4967818;28;20457;-53
2022/07/15 08:25:34;;;;;;;2.45;1.02;;;18.60;92.20;;;;;;4968898;28;20097;-53
2022/07/15 08:28:01;;;;;;;7.97;1.48;;;18.70;92.10;;;;;;4969290;28;20054;-50
2022/07/15 08:30:28;;;;;;;7.47;1.80;;;18.80;92.00;;;;;;4969115;28;20078;-53
2022/07/15 08:32:56;;;;;;;7.95;1.35;;;18.80;91.70;;;;;;4969014;28;20109;-54
2022/07/15 08:35:24;;;;;;;6.85;1.60;;;18.90;91.40;;;;;;4969098;28;20113;-54
2022/07/15 08:37:51;;;;;;;4.50;1.50;;;18.90;91.40;;;;;;4967392;28;20428;-48
2022/07/15 08:40:18;;;;;;;6.43;1.52;;;19.00;91.30;;;;;;4967742;28;20109;-54
2022/07/15 08:42:48;;;;;;;1.90;1.02;;;19.10;91.10;;;;;;4968795;28;20150;-54
2022/07/15 08:45:16;;;;;;;6.10;1.40;;;19.10;90.70;;;;;;4967750;28;20567;-52
2022/07/15 08:47:44;;;;;;;9.15;1.42;;;19.10;90.40;;;;;;4968440;28;20054;-52
2022/07/15 08:50:22;;;;;;;5.65;1.27;;;19.20;89.60;;;;;;4968769;28;20043;-53
2022/07/15 08:52:51;;;;;;;4.50;0.90;;;19.10;88.60;;;;;;4967422;28;20054;-55
2022/07/15 08:55:18;;;;;;;2.50;0.70;;;19.20;88.90;;;;;;4968776;28;20043;-53
2022/07/15 08:57:46;;;;;;;5.95;1.23;;;19.10;84.20;;;;;;4968246;28;20485;-53
2022/07/15 09:00:14;;;;;;;4.50;1.73;;;19.10;84.80;;;;;;4968807;28;20062;-56
2022/07/15 09:02:40;;;;;;;2.08;1.50;;;19.10;85.90;;;;;;4967086;28;20059;-52
2022/07/15 09:05:29;;;;;;;5.75;1.30;;;19.10;86.90;;;;;;4966468;28;20065;-53
2022/07/15 09:08:16;;;;;;;8.75;1.25;;;19.10;85.40;;;;;;4968503;28;20047;-54
2022/07/15 09:10:55;;;;;;;4.82;1.67;;;19.30;84.20;;;;;;4959063;28;20699;-54
2022/07/15 09:13:34;;;;;;;9.02;1.23;;;19.50;84.40;;;;;;4968051;28;20043;-54
2022/07/15 09:16:08;;;;;;;5.43;1.40;;;19.60;84.60;;;;;;4968105;28;20055;-55
2022/07/15 09:18:38;;;;;;;2.97;1.40;;;19.80;84.70;;;;;;4968396;28;20510;-53
2022/07/15 09:21:16;;;;;;;6.30;1.13;;;19.80;83.90;;;;;;4967284;28;20473;-52
2022/07/15 09:23:42;;;;;;;5.13;1.33;;;19.90;80.50;;;;;;4967318;28;20047;-52
2022/07/15 09:26:36;;;;;;;8.73;1.70;;;20.00;82.70;;;;;;4968374;28;20038;-53
2022/07/15 09:33:34;;;;;;;3.22;0.80;;;20.10;77.90;;;;;;4968283;28;20042;-54
2022/07/15 09:35:01;;;;;;;3.97;1.00;;;20.30;78.70;;;;;;4960493;28;20411;-51
2022/07/15 09:37:28;;;;;;;3.17;1.10;;;20.40;76.70;;;;;;4968743;28;20062;-56
2022/07/15 09:39:56;;;;;;;2.63;0.95;;;20.50;77.30;;;;;;4967931;28;20613;-55
2022/07/15 09:42:23;;;;;;;6.60;1.40;;;20.60;76.60;;;;;;4968418;28;20055;-56
2022/07/15 09:44:51;;;;;;;3.55;0.93;;;20.60;73.50;;;;;;4967202;28;20059;-54
2022/07/15 09:47:19;;;;;;;8.05;1.10;;;20.50;76.10;;;;;;4967235;28;20232;-53
2022/07/15 09:49:46;;;;;;;5.20;1.13;;;20.60;76.30;;;;;;4967724;28;20106;-53
2022/07/15 09:52:14;;;;;;;2.88;1.33;;;20.70;74.40;;;;;;4968393;28;20058;-52
2022/07/15 09:54:43;;;;;;;5.05;1.23;;;20.60;71.70;;;;;;4968240;28;20043;-54
2022/07/15 09:57:15;;;;;;;3.42;0.90;;;20.70;72.40;;;;;;4966603;28;20101;-55
2022/07/15 09:59:46;;;;;;;3.35;1.52;;;20.60;71.90;;;;;;4966665;28;20043;-52
2022/07/15 10:02:14;;;;;;;4.45;1.27;;;20.80;70.70;;;;;;4968088;28;20050;-54
2022/07/15 10:04:42;;;;;;;2.38;1.08;;;20.70;72.10;;;;;;4968030;28;20113;-55
2022/07/15 10:07:09;;;;;;;1.60;0.70;;;20.90;72.60;;;;;;4968009;28;20038;-53
2022/07/15 10:09:55;;;;;;;2.53;0.93;;;21.10;72.40;;;;;;4966938;28;20339;-55
2022/07/15 10:12:40;;;;;;;1.63;0.65;;;21.30;68.10;;;;;;4962654;28;20055;-55
2022/07/15 10:15:44;;;;;;;5.97;1.25;;;21.80;69.60;;;;;;4966775;28;20335;-55
2022/07/15 10:18:33;;;;;;;7.13;1.17;;;22.20;64.20;;;;;;4967120;28;20557;-54
2022/07/15 10:21:03;;;;;;;4.65;0.85;;;22.60;64.90;;;;;;4968091;28;20047;-54
2022/07/15 10:23:52;;;;;;;2.55;1.10;;;22.80;61.30;;;;;;4967854;28;20058;-55
2022/07/15 10:26:33;;;;;;;3.28;1.00;;;22.70;61.30;;;;;;4958878;28;20102;-53
2022/07/15 10:29:04;;;;;;;3.38;1.50;;;23.20;60.00;;;;;;4966765;28;20454;-56
2022/07/15 10:31:32;;;;;;;4.28;1.20;;;23.40;60.00;;;;;;4957700;28;20047;-53
2022/07/15 10:34:07;;;;;;;4.35;1.13;;;23.60;62.10;;;;;;4967789;28;20255;-54
2022/07/15 10:36:46;;;;;;;3.60;1.20;;;23.90;60.50;;;;;;4970664;28;20108;-55
2022/07/15 10:39:24;;;;;;;1.67;0.95;;;24.30;56.90;;;;;;4971384;28;20106;-53
2022/07/15 10:41:58;;;;;;;4.63;0.93;;;24.00;59.60;;;;;;4960799;28;20136;-49
2022/07/15 10:44:27;;;;;;;7.28;1.13;;;24.20;58.20;;;;;;4971324;28;20466;-53
2022/07/15 10:47:12;;;;;;;1.80;0.80;;;23.80;58.10;;;;;;4970933;28;20074;-55
2022/07/15 10:49:40;;;;;;;3.40;0.85;;;23.90;56.60;;;;;;4970833;28;20553;-54
2022/07/15 10:52:27;;;;;;;1.98;0.60;;;24.20;58.90;;;;;;4962745;28;20038;-54
2022/07/15 10:54:54;;;;;;;4.85;1.05;;;24.40;56.90;;;;;;4953429;28;20051;-55
2022/07/15 10:57:40;;;;;;;3.13;0.90;;;24.30;57.00;;;;;;4970803;28;20542;-54
2022/07/15 11:00:26;;;;;;;2.30;1.15;;;23.90;54.80;;;;;;4971047;28;20351;-54
2022/07/15 11:03:10;;;;;;;4.63;1.00;;;23.70;54.40;;;;;;4969399;28;20050;-54
2022/07/15 11:05:52;;;;;;;1.38;0.70;;;23.60;54.70;;;;;;4970379;28;20073;-53
2022/07/15 11:08:32;;;;;;;4.95;0.88;;;23.50;55.10;;;;;;4970701;28;20043;-54
2022/07/15 11:11:14;;;;;;;5.07;1.00;;;23.30;54.60;;;;;;4970499;28;20050;-54
2022/07/15 11:13:45;;;;;;;2.58;1.33;;;23.20;55.50;;;;;;4970007;28;20506;-55
2022/07/15 11:16:12;;;;;;;4.35;1.02;;;23.20;56.00;;;;;;4967077;28;20082;-51
2022/07/15 11:18:51;;;;;;;1.98;0.82;;;23.40;57.60;;;;;;4970576;28;20047;-55
2022/07/15 11:21:19;;;;;;;3.83;1.25;;;23.40;55.30;;;;;;4970784;28;20477;-54
2022/07/15 11:23:47;;;;;;;2.22;0.90;;;23.50;55.60;;;;;;4969044;28;20051;-55
2022/07/15 11:26:14;;;;;;;1.52;0.85;;;23.40;56.50;;;;;;4970145;28;20117;-55
2022/07/15 11:28:54;;;;;;;4.97;1.05;;;23.30;56.30;;;;;;4969942;28;20061;-56
2022/07/15 11:31:25;;;;;;;5.32;1.25;;;23.20;54.30;;;;;;4970726;28;20049;-55
2022/07/15 11:33:53;;;;;;;5.18;1.00;;;23.30;55.20;;;;;;4970216;28;20260;-55
2022/07/15 11:36:23;;;;;;;3.08;1.05;;;23.30;56.20;;;;;;4970455;28;20544;-56
2022/07/15 11:38:50;;;;;;;1.65;1.00;;;23.20;55.40;;;;;;4968817;28;20410;-58
2022/07/15 11:46:53;;;;;;;3.75;1.38;;;23.40;55.00;;;;;;4969401;28;20050;-54
2022/07/15 11:49:27;;;;;;;3.85;1.10;;;23.50;55.60;;;;;;4970029;28;20214;-52
2022/07/15 11:51:54;;;;;;;3.47;1.13;;;23.50;54.30;;;;;;4969600;28;20505;-49
2022/07/15 11:54:21;;;;;;;5.57;1.17;;;23.50;55.00;;;;;;4970075;28;20078;-53
2022/07/15 11:56:54;;;;;;;6.10;1.15;;;23.50;55.20;;;;;;4968196;28;20346;-53
2022/07/15 11:59:21;;;;;;;1.65;0.80;;;23.50;53.40;;;;;;4970112;28;20542;-50
2022/07/15 12:01:48;;;;;;;4.10;1.58;;;23.50;53.90;;;;;;4968169;28;20050;-52
2022/07/15 12:04:16;;;;;;;2.40;1.00;;;23.70;54.10;;;;;;4952436;28;20093;-54
2022/07/15 12:06:42;;;;;;;3.08;1.20;;;23.50;54.60;;;;;;4969611;28;20098;-53
2022/07/15 12:09:09;;;;;;;2.58;1.27;;;23.60;55.10;;;;;;4968198;28;20510;-54
2022/07/15 12:11:37;;;;;;;3.38;1.30;;;23.70;55.20;;;;;;4969176;28;20047;-52
2022/07/15 12:14:18;;;;;;;2.92;1.20;;;23.80;54.50;;;;;;4968315;28;20158;-53
2022/07/15 12:16:49;;;;;;;4.75;0.90;;;23.90;54.40;;;;;;4957953;28;20078;-54
2022/07/15 12:19:24;;;;;;;2.88;0.90;;;23.90;54.50;;;;;;4968431;28;20054;-56
2022/07/15 12:21:52;;;;;;;5.57;1.00;;;24.00;53.60;;;;;;4969136;28;20093;-53
2022/07/15 12:24:20;;;;;;;6.05;1.27;;;24.00;54.40;;;;;;4967936;28;20458;-53
2022/07/15 12:26:50;;;;;;;3.33;1.00;;;24.10;53.00;;;;;;4968681;28;20046;-54
2022/07/15 12:29:18;;;;;;;7.90;1.80;;;24.00;54.60;;;;;;4969464;28;20129;-55
2022/07/15 12:32:02;;;;;;;3.83;1.20;;;24.20;53.70;;;;;;4965245;28;20053;-54
2022/07/15 12:35:02;;;;;;;1.92;1.05;;;24.30;51.90;;;;;;4969287;28;20363;-53
2022/07/15 12:37:34;;;;;;;5.88;1.85;;;24.20;51.50;;;;;;4957072;28;20146;-55
2022/07/15 12:40:03;;;;;;;4.28;1.33;;;24.30;52.80;;;;;;4969018;28;20097;-55
2022/07/15 12:42:41;;;;;;;1.92;1.10;;;24.40;52.80;;;;;;4969058;28;20043;-53
2022/07/15 12:45:09;;;;;;;2.92;0.80;;;24.60;50.70;;;;;;4969011;28;20398;-54
2022/07/15 12:48:02;;;;;;;7.10;2.67;;;24.60;51.40;;;;;;4968629;28;20043;-59
2022/07/15 12:50:51;;;;;;;4.18;1.15;;;24.70;51.20;;;;;;4969272;28;20056;-53
2022/07/15 12:53:26;;;;;;;13.65;3.20;;;24.80;51.80;;;;;;4962221;28;20061;-55
2022/07/15 12:55:57;;;;;;;3.30;1.02;;;25.00;52.20;;;;;;4968215;28;20054;-54
2022/07/15 12:58:27;;;;;;;7.68;2.60;;;24.90;52.30;;;;;;4966608;28;20105;-52
2022/07/15 13:01:09;;;;;;;5.15;1.17;;;24.80;52.00;;;;;;4968461;28;20051;-59
2022/07/15 13:03:37;;;;;;;2.85;1.58;;;24.80;50.90;;;;;;4967425;28;20046;-55
2022/07/15 13:06:03;;;;;;;4.57;1.58;;;25.00;51.90;;;;;;4968689;28;20042;-51
2022/07/15 13:08:33;;;;;;;7.03;2.00;;;25.00;50.90;;;;;;4968578;28;20446;-55